createdAt,value
2018-09-24T00:00:04.242Z,13.70
2018-09-24T00:02:38.417Z,13.20
2018-09-24T00:05:12.926Z,13.20
2018-09-24T00:07:47.396Z,12.20
2018-09-24T00:10:21.640Z,11.70
2018-09-24T00:12:56.061Z,12.20
2018-09-24T00:15:30.411Z,11.60
2018-09-24T00:18:04.582Z,10.20
2018-09-24T00:20:38.774Z,11.40
2018-09-24T00:23:13.688Z,10.00
2018-09-24T00:25:48.003Z,11.00
2018-09-24T00:28:22.269Z,10.30
2018-09-24T00:30:56.700Z,9.80
2018-09-24T00:33:31.186Z,9.60
2018-09-24T00:36:05.429Z,9.80
2018-09-24T00:38:39.716Z,10.30
2018-09-24T00:41:14.013Z,9.80
2018-09-24T00:43:49.148Z,9.80
2018-09-24T00:46:23.412Z,10.20
2018-09-24T00:48:57.855Z,9.80
2018-09-24T00:51:33.294Z,9.80
2018-09-24T00:54:08.536Z,9.80
2018-09-24T00:56:42.962Z,9.80
2018-09-24T00:59:17.148Z,8.90
2018-09-24T01:01:51.492Z,7.80
2018-09-24T01:04:27.631Z,7.70
2018-09-24T01:07:02.529Z,8.50
2018-09-24T01:09:36.887Z,8.20
2018-09-24T01:12:11.218Z,9.30
2018-09-24T01:14:46.109Z,9.10
2018-09-24T01:17:21.486Z,9.00
2018-09-24T01:19:56.061Z,8.50
2018-09-24T01:22:32.389Z,7.10
2018-09-24T01:25:07.425Z,6.90
2018-09-24T01:27:42.708Z,4.50
2018-09-24T01:30:18.373Z,4.50
2018-09-24T01:32:53.533Z,4.00
2018-09-24T01:35:27.764Z,4.20
2018-09-24T01:38:02.129Z,4.70
2018-09-24T01:40:36.490Z,5.60
2018-09-24T01:43:10.775Z,4.60
2018-09-24T01:45:45.073Z,4.60
2018-09-24T01:48:19.445Z,4.80
2018-09-24T01:50:53.757Z,5.00
2018-09-24T01:53:28.743Z,5.90
2018-09-24T01:56:03.504Z,5.90
2018-09-24T01:58:38.723Z,6.40
2018-09-24T02:01:13.127Z,6.70
2018-09-24T02:03:47.432Z,5.50
2018-09-24T02:06:21.927Z,5.90
2018-09-24T02:08:56.248Z,6.20
2018-09-24T02:11:32.300Z,7.30
2018-09-24T02:14:06.701Z,7.70
2018-09-24T02:16:41.068Z,7.50
2018-09-24T02:19:15.287Z,8.20
2018-09-24T02:21:49.603Z,8.00
2018-09-24T02:24:23.864Z,8.20
2018-09-24T02:26:58.169Z,8.40
2018-09-24T02:29:33.488Z,8.90
2018-09-24T02:32:08.764Z,9.60
2018-09-24T02:34:44.119Z,9.60
2018-09-24T02:37:19.016Z,10.00
2018-09-24T02:39:53.983Z,10.50
2018-09-24T02:42:28.195Z,10.70
2018-09-24T02:45:02.492Z,10.30
2018-09-24T02:47:38.141Z,10.20
2018-09-24T02:50:13.277Z,9.50
2018-09-24T02:52:47.583Z,9.50
2018-09-24T02:55:21.765Z,9.50
2018-09-24T02:57:56.048Z,9.60
2018-09-24T03:00:31.088Z,9.50
2018-09-24T03:03:09.196Z,9.50
2018-09-24T03:05:44.700Z,9.50
2018-09-24T03:08:20.083Z,8.80
2018-09-24T03:10:54.808Z,8.20
2018-09-24T03:13:29.124Z,7.80
2018-09-24T03:16:03.435Z,7.60
2018-09-24T03:18:38.545Z,7.40
2018-09-24T03:21:12.882Z,7.10
2018-09-24T03:23:50.158Z,7.20
2018-09-24T03:26:24.529Z,7.90
2018-09-24T03:28:58.772Z,8.00
2018-09-24T03:31:36.379Z,9.50
2018-09-24T03:34:13.850Z,9.90
2018-09-24T03:36:48.928Z,10.50
2018-09-24T03:39:23.158Z,11.30
2018-09-24T03:41:57.686Z,12.10
2018-09-24T03:44:31.877Z,11.70
2018-09-24T03:47:06.313Z,11.60
2018-09-24T03:49:41.725Z,11.50
2018-09-24T03:52:16.008Z,11.90
2018-09-24T03:54:50.296Z,11.50
2018-09-24T03:57:24.476Z,11.30
2018-09-24T03:59:58.912Z,11.40
2018-09-24T04:02:33.955Z,11.30
2018-09-24T04:05:13.874Z,11.80
2018-09-24T04:07:54.472Z,10.80
2018-09-24T04:10:34.229Z,11.50
2018-09-24T04:13:13.964Z,10.70
2018-09-24T04:15:54.037Z,8.90
2018-09-24T04:18:34.921Z,7.60
2018-09-24T04:21:14.685Z,7.50
2018-09-24T04:23:54.430Z,6.80
2018-09-24T04:26:35.121Z,6.80
2018-09-24T04:29:15.377Z,5.50
2018-09-24T04:31:55.094Z,4.40
2018-09-24T04:34:34.614Z,3.30
2018-09-24T04:37:14.439Z,3.80
2018-09-24T04:39:54.203Z,3.80
2018-09-24T04:42:33.793Z,3.60
2018-09-24T04:45:13.184Z,4.30
2018-09-24T04:47:52.577Z,4.00
2018-09-24T04:50:32.169Z,4.00
2018-09-24T04:53:11.797Z,4.90
2018-09-24T04:55:51.437Z,5.30
2018-09-24T04:58:31.698Z,5.30
2018-09-24T05:01:11.198Z,4.20
2018-09-24T05:03:50.919Z,4.60
2018-09-24T05:06:30.762Z,5.00
2018-09-24T05:09:14.832Z,2.70
2018-09-24T05:11:55.560Z,2.50
2018-09-24T05:14:35.367Z,2.70
2018-09-24T05:17:15.038Z,2.30
2018-09-24T05:19:55.537Z,1.00
2018-09-24T05:22:35.256Z,1.00
2018-09-24T05:25:16.070Z,1.00
2018-09-24T05:27:56.615Z,1.00
2018-09-24T05:30:36.821Z,1.00
2018-09-24T05:33:16.485Z,1.00
2018-09-24T05:35:58.030Z,1.00
2018-09-24T05:38:39.108Z,1.00
2018-09-24T05:41:18.992Z,1.00
2018-09-24T05:43:58.724Z,1.00
2018-09-24T05:46:38.273Z,1.00
2018-09-24T05:49:18.405Z,1.00
2018-09-24T05:51:57.983Z,1.00
2018-09-24T05:54:37.629Z,1.00
2018-09-24T05:57:20.200Z,1.00
2018-09-24T05:59:59.926Z,1.00
2018-09-24T06:02:40.997Z,1.00
2018-09-24T06:05:21.067Z,1.00
2018-09-24T06:08:00.851Z,1.00
2018-09-24T06:10:40.408Z,1.00
2018-09-24T06:13:20.240Z,1.00
2018-09-24T06:16:01.552Z,1.00
2018-09-24T06:18:41.074Z,1.00
2018-09-24T06:21:20.891Z,1.00
2018-09-24T06:24:00.590Z,1.00
2018-09-24T06:26:40.620Z,1.00
2018-09-24T06:29:20.308Z,1.00
2018-09-24T06:32:00.235Z,1.00
2018-09-24T06:34:39.648Z,1.00
2018-09-24T06:37:19.293Z,1.00
2018-09-24T06:39:58.820Z,1.00
2018-09-24T06:42:38.402Z,1.00
2018-09-24T06:45:17.940Z,1.00
2018-09-24T06:47:57.677Z,1.00
2018-09-24T06:50:37.382Z,1.00
2018-09-24T06:53:16.919Z,1.00
2018-09-24T06:55:56.708Z,1.00
2018-09-24T06:58:37.389Z,1.00
2018-09-24T07:01:17.034Z,1.00
2018-09-24T07:03:57.055Z,1.00
2018-09-24T07:06:36.720Z,1.00
2018-09-24T07:09:16.513Z,1.00
2018-09-24T07:11:56.205Z,1.00
2018-09-24T07:14:36.841Z,1.00
2018-09-24T07:17:16.581Z,1.00
2018-09-24T07:19:56.564Z,1.00
2018-09-24T07:22:36.379Z,1.00
2018-09-24T07:25:16.325Z,1.00
2018-09-24T07:27:56.162Z,1.00
2018-09-24T07:30:35.842Z,1.00
2018-09-24T07:33:15.540Z,1.00
2018-09-24T07:35:55.569Z,1.00
2018-09-24T07:38:36.316Z,1.00
2018-09-24T07:41:17.841Z,1.00
2018-09-24T07:43:57.578Z,1.00
2018-09-24T07:46:37.471Z,1.00
2018-09-24T07:49:18.282Z,1.00
2018-09-24T07:51:58.048Z,1.00
2018-09-24T07:54:38.772Z,1.00
2018-09-24T07:57:18.557Z,1.00
2018-09-24T07:59:58.713Z,1.00
2018-09-24T08:02:40.265Z,1.00
2018-09-24T08:05:19.999Z,1.00
2018-09-24T08:07:59.549Z,1.00
2018-09-24T08:10:39.299Z,1.00
2018-09-24T08:13:18.977Z,1.00
2018-09-24T08:15:58.516Z,1.00
2018-09-24T08:18:38.253Z,1.00
2018-09-24T08:21:17.752Z,1.00
2018-09-24T08:23:57.147Z,1.00
2018-09-24T08:26:37.854Z,1.00
2018-09-24T08:29:17.498Z,1.00
2018-09-24T08:31:56.895Z,1.00
2018-09-24T08:34:36.588Z,1.00
2018-09-24T08:37:16.238Z,1.00
2018-09-24T08:39:55.680Z,1.00
2018-09-24T08:42:35.755Z,1.00
2018-09-24T08:45:15.288Z,1.00
2018-09-24T08:47:56.031Z,1.00
2018-09-24T08:50:37.404Z,1.00
2018-09-24T08:53:18.094Z,1.00
2018-09-24T08:55:57.730Z,1.00
2018-09-24T08:58:37.428Z,1.00
2018-09-24T09:01:16.808Z,1.00
2018-09-24T09:03:56.293Z,1.00
2018-09-24T09:06:35.841Z,1.00
2018-09-24T09:09:16.445Z,1.00
2018-09-24T09:11:56.096Z,1.00
2018-09-24T09:14:35.573Z,1.00
2018-09-24T09:17:15.225Z,1.00
2018-09-24T09:19:54.718Z,1.00
2018-09-24T09:22:34.732Z,1.00
2018-09-24T09:25:14.456Z,1.00
2018-09-24T09:27:54.317Z,1.00
2018-09-24T09:30:33.946Z,1.00
2018-09-24T09:33:13.561Z,1.00
2018-09-24T09:35:53.288Z,1.00
2018-09-24T09:38:33.176Z,1.00
2018-09-24T09:41:12.806Z,1.00
2018-09-24T09:43:53.173Z,1.00
2018-09-24T09:46:32.621Z,1.00
2018-09-24T09:49:12.804Z,1.00
2018-09-24T09:51:52.492Z,1.00
2018-09-24T09:54:31.945Z,1.00
2018-09-24T09:57:11.801Z,1.00
2018-09-24T09:59:51.479Z,1.00
2018-09-24T10:02:33.437Z,1.00
2018-09-24T10:05:13.020Z,1.00
2018-09-24T10:07:52.764Z,1.00
2018-09-24T10:10:32.553Z,1.00
2018-09-24T10:13:12.144Z,1.00
2018-09-24T10:15:51.774Z,1.00
2018-09-24T10:18:31.125Z,1.00
2018-09-24T10:21:10.628Z,1.00
2018-09-24T10:23:50.112Z,1.00
2018-09-24T10:26:35.702Z,1.00
2018-09-24T10:29:24.419Z,1.00
2018-09-24T10:32:04.692Z,1.00
2018-09-24T10:34:44.241Z,1.00
2018-09-24T10:37:23.724Z,1.00
2018-09-24T10:40:03.380Z,1.00
2018-09-24T10:42:42.975Z,1.00
2018-09-24T10:45:22.513Z,1.00
2018-09-24T10:48:03.533Z,1.00
2018-09-24T10:50:43.149Z,1.00
2018-09-24T10:53:22.769Z,1.00
2018-09-24T10:56:02.651Z,1.00
2018-09-24T10:58:42.166Z,1.00
2018-09-24T11:01:23.174Z,1.00
2018-09-24T11:04:03.112Z,1.00
2018-09-24T11:06:42.963Z,1.00
2018-09-24T11:09:23.161Z,1.00
2018-09-24T11:12:03.340Z,1.00
2018-09-24T11:14:45.467Z,1.00
2018-09-24T11:17:25.476Z,1.00
2018-09-24T11:20:06.907Z,1.00
2018-09-24T11:22:46.497Z,1.00
2018-09-24T11:25:25.989Z,1.00
2018-09-24T11:28:06.019Z,1.00
2018-09-24T11:30:46.033Z,1.00
2018-09-24T11:33:25.745Z,1.00
2018-09-24T11:36:05.212Z,1.00
2018-09-24T11:38:44.913Z,1.00
2018-09-24T11:41:24.425Z,1.00
2018-09-24T11:44:04.133Z,1.00
2018-09-24T11:46:43.861Z,1.00
2018-09-24T11:49:23.566Z,1.00
2018-09-24T11:52:03.254Z,1.00
2018-09-24T11:54:43.177Z,1.00
2018-09-24T11:57:23.197Z,1.00
2018-09-24T12:00:04.787Z,1.00
2018-09-24T12:02:44.956Z,1.00
2018-09-24T12:05:24.665Z,1.00
2018-09-24T12:08:04.371Z,1.00
2018-09-24T12:10:44.017Z,1.00
2018-09-24T12:13:23.488Z,1.00
2018-09-24T12:16:03.956Z,1.00
2018-09-24T12:18:43.682Z,1.00
2018-09-24T12:21:23.348Z,1.00
2018-09-24T12:24:03.694Z,1.00
2018-09-24T12:26:43.396Z,1.00
2018-09-24T12:29:23.109Z,1.00
2018-09-24T12:32:03.200Z,1.00
2018-09-24T12:34:43.871Z,1.50
2018-09-24T12:37:23.799Z,2.10
2018-09-24T12:40:03.408Z,1.00
2018-09-24T12:42:43.388Z,1.00
2018-09-24T12:45:23.074Z,1.00
2018-09-24T12:48:02.968Z,1.00
2018-09-24T12:50:42.659Z,1.00
2018-09-24T12:53:22.436Z,1.00
2018-09-24T12:56:02.244Z,1.00
2018-09-24T12:58:42.010Z,1.00
2018-09-24T13:01:21.683Z,1.00
2018-09-24T13:04:01.379Z,1.00
2018-09-24T13:06:41.138Z,1.00
2018-09-24T13:09:22.100Z,1.00
2018-09-24T13:12:01.845Z,1.00
2018-09-24T13:14:41.742Z,1.00
2018-09-24T13:17:22.571Z,1.00
2018-09-24T13:20:02.363Z,1.00
2018-09-24T13:22:42.518Z,1.00
2018-09-24T13:25:22.625Z,1.00
2018-09-24T13:28:02.521Z,1.00
2018-09-24T13:30:42.525Z,1.00
2018-09-24T13:33:22.252Z,1.00
2018-09-24T13:36:01.894Z,1.00
2018-09-24T13:38:42.189Z,1.00
2018-09-24T13:41:22.199Z,1.00
2018-09-24T13:44:02.901Z,1.00
2018-09-24T13:46:44.033Z,1.00
2018-09-24T13:49:24.822Z,1.00
2018-09-24T13:52:05.018Z,1.00
2018-09-24T13:54:44.708Z,1.00
2018-09-24T13:57:25.930Z,1.00
2018-09-24T14:00:05.520Z,1.00
2018-09-24T14:02:45.314Z,1.00
2018-09-24T14:05:24.948Z,1.00
2018-09-24T14:08:07.147Z,1.00
2018-09-24T14:10:47.286Z,1.00
2018-09-24T14:13:26.709Z,1.00
2018-09-24T14:16:06.624Z,1.00
2018-09-24T14:18:46.777Z,1.00
2018-09-24T14:21:26.270Z,1.00
2018-09-24T14:24:06.048Z,1.00
2018-09-24T14:26:46.769Z,1.00
2018-09-24T14:29:26.570Z,1.00
2018-09-24T14:32:08.453Z,1.00
2018-09-24T14:34:50.304Z,1.00
2018-09-24T14:37:30.770Z,1.00
2018-09-24T14:40:12.555Z,1.00
2018-09-24T14:42:53.357Z,1.00
2018-09-24T14:45:33.538Z,1.00
2018-09-24T14:48:16.745Z,1.00
2018-09-24T14:50:58.481Z,1.00
2018-09-24T14:53:38.096Z,1.00
2018-09-24T14:56:18.032Z,1.00
2018-09-24T14:58:58.828Z,1.00
2018-09-24T15:01:38.663Z,1.00
2018-09-24T15:04:19.289Z,1.00
2018-09-24T15:06:59.155Z,1.00
2018-09-24T15:09:39.712Z,1.00
2018-09-24T15:12:19.337Z,1.00
2018-09-24T15:14:58.947Z,1.00
2018-09-24T15:17:38.763Z,1.00
2018-09-24T15:20:18.437Z,1.00
2018-09-24T15:22:58.138Z,1.00
2018-09-24T15:25:37.775Z,1.00
2018-09-24T15:28:17.856Z,1.00
2018-09-24T15:30:57.622Z,1.00
2018-09-24T15:33:37.143Z,1.00
2018-09-24T15:36:17.008Z,1.00
2018-09-24T15:38:56.651Z,1.00
2018-09-24T15:41:36.851Z,1.00
2018-09-24T15:44:16.452Z,1.00
2018-09-24T15:46:56.216Z,1.00
2018-09-24T15:49:35.831Z,1.00
2018-09-24T15:52:15.656Z,1.00
2018-09-24T15:54:56.508Z,1.00
2018-09-24T15:57:36.869Z,1.00
2018-09-24T16:00:18.714Z,1.00
2018-09-24T16:02:59.433Z,1.00
2018-09-24T16:05:39.060Z,1.00
2018-09-24T16:08:18.604Z,1.00
2018-09-24T16:10:58.333Z,1.00
2018-09-24T16:13:38.435Z,1.00
2018-09-24T16:16:19.257Z,1.00
2018-09-24T16:18:59.204Z,1.00
2018-09-24T16:21:39.104Z,1.00
2018-09-24T16:24:20.731Z,1.00
2018-09-24T16:27:00.972Z,1.00
2018-09-24T16:29:40.733Z,1.00
2018-09-24T16:32:20.301Z,1.00
2018-09-24T16:35:00.484Z,1.00
2018-09-24T16:37:40.339Z,1.00
2018-09-24T16:40:20.744Z,1.00
2018-09-24T16:43:00.281Z,1.00
2018-09-24T16:45:40.149Z,1.00
2018-09-24T16:48:20.066Z,1.00
2018-09-24T16:51:01.279Z,1.00
2018-09-24T16:53:41.202Z,1.00
2018-09-24T16:56:20.991Z,1.00
2018-09-24T16:59:00.590Z,1.00
2018-09-24T17:01:40.586Z,1.00
2018-09-24T17:04:20.706Z,1.00
2018-09-24T17:07:00.679Z,1.00
2018-09-24T17:09:40.605Z,1.00
2018-09-24T17:12:22.521Z,1.00
2018-09-24T17:15:02.256Z,1.00
2018-09-24T17:17:41.992Z,1.00
2018-09-24T17:20:22.533Z,1.00
2018-09-24T17:23:02.432Z,1.00
2018-09-24T17:25:42.381Z,1.00
2018-09-24T17:28:22.093Z,1.00
2018-09-24T17:31:01.756Z,1.00
2018-09-24T17:33:42.166Z,1.00
2018-09-24T17:36:24.481Z,1.00
2018-09-24T17:39:05.098Z,1.00
2018-09-24T17:41:46.425Z,1.00
2018-09-24T17:44:27.433Z,1.00
2018-09-24T17:47:09.029Z,1.00
2018-09-24T17:49:48.647Z,1.00
2018-09-24T17:52:29.845Z,1.00
2018-09-24T17:55:10.754Z,1.00
2018-09-24T17:57:50.537Z,1.00
2018-09-24T18:00:37.077Z,1.00
2018-09-24T18:03:16.820Z,1.00
2018-09-24T18:05:56.532Z,1.00
2018-09-24T18:08:36.388Z,1.00
2018-09-24T18:11:16.222Z,1.00
2018-09-24T18:13:55.980Z,1.00
2018-09-24T18:16:35.571Z,1.00
2018-09-24T18:19:15.753Z,1.00
2018-09-24T18:21:55.540Z,1.00
2018-09-24T18:24:35.204Z,1.00
2018-09-24T18:27:14.854Z,1.00
2018-09-24T18:29:54.364Z,1.00
2018-09-24T18:32:34.055Z,1.00
2018-09-24T18:35:14.053Z,1.00
2018-09-24T18:37:53.797Z,1.00
2018-09-24T18:40:33.684Z,1.00
2018-09-24T18:43:14.548Z,1.00
2018-09-24T18:45:54.573Z,1.00
2018-09-24T18:48:34.302Z,1.00
2018-09-24T18:51:13.943Z,1.00
2018-09-24T18:53:54.037Z,1.00
2018-09-24T18:56:35.343Z,1.00
2018-09-24T18:59:15.772Z,1.00
2018-09-24T19:01:55.507Z,1.00
2018-09-24T19:04:35.270Z,1.00
2018-09-24T19:07:15.019Z,1.00
2018-09-24T19:09:55.213Z,1.00
2018-09-24T19:12:35.363Z,1.00
2018-09-24T19:15:15.455Z,1.00
2018-09-24T19:17:56.113Z,1.00
2018-09-24T19:20:36.912Z,1.00
2018-09-24T19:23:18.474Z,1.00
2018-09-24T19:25:58.852Z,1.00
2018-09-24T19:28:39.458Z,1.00
2018-09-24T19:31:19.010Z,1.00
2018-09-24T19:33:58.908Z,1.00
2018-09-24T19:36:41.059Z,1.00
2018-09-24T19:39:21.941Z,1.00
2018-09-24T19:42:02.638Z,1.00
2018-09-24T19:44:43.354Z,1.00
2018-09-24T19:47:23.807Z,1.00
2018-09-24T19:50:05.512Z,1.00
2018-09-24T19:52:46.947Z,1.00
2018-09-24T19:55:26.994Z,1.00
2018-09-24T19:58:08.132Z,1.00
2018-09-24T20:00:48.415Z,1.00
2018-09-24T20:03:28.187Z,1.00
2018-09-24T20:06:08.173Z,1.00
2018-09-24T20:08:48.493Z,1.00
2018-09-24T20:11:28.809Z,1.00
2018-09-24T20:14:08.541Z,1.00
2018-09-24T20:16:49.492Z,1.00
2018-09-24T20:19:29.265Z,1.00
2018-09-24T20:22:10.007Z,1.00
2018-09-24T20:24:50.216Z,1.00
2018-09-24T20:27:30.029Z,1.00
2018-09-24T20:30:10.870Z,1.00
2018-09-24T20:32:50.711Z,1.00
2018-09-24T20:35:30.404Z,1.00
2018-09-24T20:38:10.166Z,1.00
2018-09-24T20:40:50.100Z,1.00
2018-09-24T20:43:29.943Z,1.00
2018-09-24T20:46:09.738Z,1.00
2018-09-24T20:48:50.377Z,1.00
2018-09-24T20:51:30.711Z,1.00
2018-09-24T20:54:10.604Z,1.00
2018-09-24T20:56:51.655Z,1.00
2018-09-24T20:59:31.612Z,1.00
2018-09-24T21:02:11.354Z,1.00
2018-09-24T21:04:51.183Z,1.00
2018-09-24T21:07:31.012Z,1.00
2018-09-24T21:10:11.530Z,1.00
2018-09-24T21:12:51.368Z,1.00
2018-09-24T21:15:34.305Z,1.00
2018-09-24T21:18:14.425Z,1.00
2018-09-24T21:20:56.861Z,1.00
2018-09-24T21:23:39.565Z,1.00
2018-09-24T21:26:22.797Z,1.00
2018-09-24T21:32:06.246Z,1.00
2018-09-24T21:34:46.737Z,1.00
2018-09-24T21:37:27.419Z,1.00
2018-09-24T21:40:06.910Z,1.00
2018-09-24T21:42:46.657Z,1.00
2018-09-24T21:45:26.600Z,1.00
2018-09-24T21:48:06.340Z,1.00
2018-09-24T21:50:47.003Z,1.00
2018-09-24T21:53:26.832Z,1.00
2018-09-24T21:56:06.380Z,1.00
2018-09-24T21:58:46.261Z,1.00
2018-09-24T22:01:26.187Z,1.00
2018-09-24T22:04:05.938Z,1.00
2018-09-24T22:06:45.884Z,1.00
2018-09-24T22:09:26.855Z,1.00
2018-09-24T22:12:06.700Z,1.00
2018-09-24T22:14:46.345Z,1.00
2018-09-24T22:17:26.136Z,1.00
2018-09-24T22:20:05.828Z,1.00
2018-09-24T22:22:47.620Z,1.00
2018-09-24T22:25:27.469Z,1.00
2018-09-24T22:28:07.423Z,1.00
2018-09-24T22:30:48.404Z,1.00
2018-09-24T22:33:27.994Z,1.00
2018-09-24T22:36:08.192Z,1.00
2018-09-24T22:38:48.468Z,1.00
2018-09-24T22:41:28.047Z,1.00
2018-09-24T22:44:07.692Z,1.00
2018-09-24T22:46:48.971Z,1.00
2018-09-24T22:49:29.784Z,1.00
2018-09-24T22:52:10.661Z,1.10
2018-09-24T22:54:52.968Z,1.10
2018-09-24T22:57:33.688Z,2.00
2018-09-24T23:00:14.561Z,2.70
2018-09-24T23:02:54.199Z,4.30
2018-09-24T23:05:37.281Z,4.30
2018-09-24T23:08:16.800Z,5.30
2018-09-24T23:10:56.253Z,5.00
2018-09-24T23:13:35.988Z,5.00
2018-09-24T23:16:15.748Z,6.20
2018-09-24T23:18:55.563Z,6.70
2018-09-24T23:21:35.125Z,6.70
2018-09-24T23:24:14.620Z,6.70
2018-09-24T23:26:54.182Z,8.10
2018-09-24T23:29:33.741Z,7.80
2018-09-24T23:32:13.589Z,8.60
2018-09-24T23:34:53.249Z,8.70
2018-09-24T23:37:33.046Z,8.70
2018-09-24T23:40:12.980Z,8.70
2018-09-24T23:42:52.536Z,8.70
2018-09-24T23:45:33.014Z,9.20
2018-09-24T23:48:12.683Z,8.90
2018-09-24T23:50:52.386Z,9.20
2018-09-24T23:53:32.125Z,9.90
2018-09-24T23:56:12.712Z,10.00
2018-09-24T23:58:52.748Z,10.90
